Jacumba, California
Current Conditions -  °F | °C
As of 10:56 AM on Saturday 20 Dec 2014 (Local Time) from KNJK Reporting Station
Broken Clouds Broken Clouds  
Wind Chill: 63°   Ceiling: 25000
Heat Index: 63°   Visibility: 10mi
Dew Point: 44°   Wind: 5mph
Humidity: 50%   Direction: NA
Pressure: 30.15"   Gusts: NA
Location:  32.62°N, 116.19°W
Report Text: KNJK 201856Z VRB04KT 10SM FEW150 BKN250 17/07 A3015 RMK AO2 SLP224 T01720067
Loading
Personal Weather Stations






























Interactive Weather Map New forecast layout! Learn more

10-Day Weather Forecast

Advertisements
Track Severe Weather on mobile